sensor_id;sensor_type;location;lat;lon;timestamp;temperature;humidity
935;DHT22;454;53.254;10.400;2023-11-19T05:02:08;7.80;99.90
935;DHT22;454;53.254;10.400;2023-11-19T05:04:35;7.80;99.90
935;DHT22;454;53.254;10.400;2023-11-19T05:07:03;7.80;99.90
935;DHT22;454;53.254;10.400;2023-11-19T05:09:30;7.90;99.90
935;DHT22;454;53.254;10.400;2023-11-19T05:11:57;7.90;99.90
935;DHT22;454;53.254;10.400;2023-11-19T05:14:23;7.90;99.90
935;DHT22;454;53.254;10.400;2023-11-19T05:16:50;8.00;99.90
935;DHT22;454;53.254;10.400;2023-11-19T05:19:18;8.00;99.90
935;DHT22;454;53.254;10.400;2023-11-19T05:21:45;8.10;99.90
935;DHT22;454;53.254;10.400;2023-11-19T05:24:11;8.10;99.90
935;DHT22;454;53.254;10.400;2023-11-19T05:26:38;8.10;99.90
935;DHT22;454;53.254;10.400;2023-11-19T05:29:06;8.10;99.90
935;DHT22;454;53.254;10.400;2023-11-19T05:31:32;8.20;99.90
935;DHT22;454;53.254;10.400;2023-11-19T05:33:59;8.20;99.90
935;DHT22;454;53.254;10.400;2023-11-19T05:36:27;8.30;99.90
935;DHT22;454;53.254;10.400;2023-11-19T05:38:54;8.30;99.90
935;DHT22;454;53.254;10.400;2023-11-19T05:41:21;8.30;99.90
935;DHT22;454;53.254;10.400;2023-11-19T05:43:47;8.30;99.90
935;DHT22;454;53.254;10.400;2023-11-19T05:46:14;8.40;99.90
935;DHT22;454;53.254;10.400;2023-11-19T05:48:42;8.40;99.90
935;DHT22;454;53.254;10.400;2023-11-19T05:51:12;8.40;99.90
935;DHT22;454;53.254;10.400;2023-11-19T05:53:41;8.50;99.90
935;DHT22;454;53.254;10.400;2023-11-19T05:56:09;8.60;99.90
935;DHT22;454;53.254;10.400;2023-11-19T05:58:35;8.60;99.90
935;DHT22;454;53.254;10.400;2023-11-19T06:01:03;8.60;99.90
935;DHT22;454;53.254;10.400;2023-11-19T06:03:32;8.70;99.90
935;DHT22;454;53.254;10.400;2023-11-19T06:05:59;8.70;99.90
935;DHT22;454;53.254;10.400;2023-11-19T06:08:26;8.70;99.90
935;DHT22;454;53.254;10.400;2023-11-19T06:10:54;8.70;99.90
935;DHT22;454;53.254;10.400;2023-11-19T06:13:21;8.80;99.90
935;DHT22;454;53.254;10.400;2023-11-19T06:15:49;8.80;99.90
935;DHT22;454;53.254;10.400;2023-11-19T06:18:16;8.80;99.90
935;DHT22;454;53.254;10.400;2023-11-19T06:20:45;8.80;99.90
935;DHT22;454;53.254;10.400;2023-11-19T06:23:12;8.80;99.90
935;DHT22;454;53.254;10.400;2023-11-19T06:25:39;8.90;99.90
935;DHT22;454;53.254;10.400;2023-11-19T06:28:07;8.90;99.90
935;DHT22;454;53.254;10.400;2023-11-19T06:30:43;8.90;99.90
935;DHT22;454;53.254;10.400;2023-11-19T06:33:12;9.00;99.90
935;DHT22;454;53.254;10.400;2023-11-19T06:35:39;9.00;99.90
935;DHT22;454;53.254;10.400;2023-11-19T06:38:06;9.10;99.90
935;DHT22;454;53.254;10.400;2023-11-19T06:40:34;9.10;99.90
935;DHT22;454;53.254;10.400;2023-11-19T06:43:01;9.10;99.90
935;DHT22;454;53.254;10.400;2023-11-19T06:45:30;9.20;99.90
935;DHT22;454;53.254;10.400;2023-11-19T06:47:57;9.20;99.90
935;DHT22;454;53.254;10.400;2023-11-19T06:50:24;9.20;99.90
935;DHT22;454;53.254;10.400;2023-11-19T06:52:50;9.30;99.90
935;DHT22;454;53.254;10.400;2023-11-19T06:55:17;9.30;99.90
935;DHT22;454;53.254;10.400;2023-11-19T06:57:44;9.40;99.90
935;DHT22;454;53.254;10.400;2023-11-19T07:00:11;9.60;99.90
935;DHT22;454;53.254;10.400;2023-11-19T07:02:39;9.70;99.90
935;DHT22;454;53.254;10.400;2023-11-19T07:05:07;9.80;99.90
935;DHT22;454;53.254;10.400;2023-11-19T07:07:34;10.00;99.90
935;DHT22;454;53.254;10.400;2023-11-19T07:10:00;10.10;99.90
935;DHT22;454;53.254;10.400;2023-11-19T07:12:28;10.20;99.90
935;DHT22;454;53.254;10.400;2023-11-19T07:14:55;10.20;99.90
935;DHT22;454;53.254;10.400;2023-11-19T07:17:22;10.30;99.90
935;DHT22;454;53.254;10.400;2023-11-19T07:19:50;10.40;99.90
935;DHT22;454;53.254;10.400;2023-11-19T07:22:17;10.50;99.90
935;DHT22;454;53.254;10.400;2023-11-19T07:24:43;10.60;99.90
935;DHT22;454;53.254;10.400;2023-11-19T07:27:10;10.60;99.90
935;DHT22;454;53.254;10.400;2023-11-19T07:29:39;10.70;99.90
935;DHT22;454;53.254;10.400;2023-11-19T07:32:06;10.60;99.90
935;DHT22;454;53.254;10.400;2023-11-19T07:34:34;10.70;99.90
935;DHT22;454;53.254;10.400;2023-11-19T07:37:02;10.70;99.90
935;DHT22;454;53.254;10.400;2023-11-19T07:39:30;10.70;99.90
935;DHT22;454;53.254;10.400;2023-11-19T07:41:56;10.70;99.90
935;DHT22;454;53.254;10.400;2023-11-19T07:44:23;10.70;99.90
935;DHT22;454;53.254;10.400;2023-11-19T07:46:50;10.70;99.90
935;DHT22;454;53.254;10.400;2023-11-19T07:49:16;10.80;99.90
935;DHT22;454;53.254;10.400;2023-11-19T07:51:43;10.80;99.90
935;DHT22;454;53.254;10.400;2023-11-19T07:54:11;10.80;99.90
935;DHT22;454;53.254;10.400;2023-11-19T07:56:39;10.80;99.90
935;DHT22;454;53.254;10.400;2023-11-19T07:59:06;10.80;99.90
935;DHT22;454;53.254;10.400;2023-11-19T08:01:33;10.80;99.90
935;DHT22;454;53.254;10.400;2023-11-19T08:03:59;10.90;99.90
935;DHT22;454;53.254;10.400;2023-11-19T08:06:27;10.90;99.90
935;DHT22;454;53.254;10.400;2023-11-19T08:08:54;10.90;99.90
935;DHT22;454;53.254;10.400;2023-11-19T08:11:22;10.90;99.90
935;DHT22;454;53.254;10.400;2023-11-19T08:13:49;10.90;99.90
935;DHT22;454;53.254;10.400;2023-11-19T08:16:15;11.00;99.90
935;DHT22;454;53.254;10.400;2023-11-19T08:18:43;11.10;99.90
935;DHT22;454;53.254;10.400;2023-11-19T08:21:10;11.20;99.90
935;DHT22;454;53.254;10.400;2023-11-19T08:23:37;11.30;99.90
935;DHT22;454;53.254;10.400;2023-11-19T08:26:04;11.30;99.90
935;DHT22;454;53.254;10.400;2023-11-19T08:28:32;11.30;99.90
935;DHT22;454;53.254;10.400;2023-11-19T08:30:59;11.30;99.90
935;DHT22;454;53.254;10.400;2023-11-19T08:33:26;11.30;99.90
935;DHT22;454;53.254;10.400;2023-11-19T08:35:53;11.30;99.90
935;DHT22;454;53.254;10.400;2023-11-19T08:38:20;11.40;99.90
935;DHT22;454;53.254;10.400;2023-11-19T08:40:47;11.30;99.90
935;DHT22;454;53.254;10.400;2023-11-19T08:43:13;11.30;99.90
935;DHT22;454;53.254;10.400;2023-11-19T08:45:42;11.30;99.90
935;DHT22;454;53.254;10.400;2023-11-19T08:48:09;11.30;99.90
935;DHT22;454;53.254;10.400;2023-11-19T08:50:35;11.30;99.90
935;DHT22;454;53.254;10.400;2023-11-19T08:53:02;11.30;99.90
935;DHT22;454;53.254;10.400;2023-11-19T08:55:32;11.30;99.90
935;DHT22;454;53.254;10.400;2023-11-19T08:57:59;11.40;99.90
935;DHT22;454;53.254;10.400;2023-11-19T09:00:26;11.30;99.90
935;DHT22;454;53.254;10.400;2023-11-19T09:02:54;11.30;99.90
935;DHT22;454;53.254;10.400;2023-11-19T09:05:21;11.30;99.90
935;DHT22;454;53.254;10.400;2023-11-19T09:07:48;11.30;99.90
935;DHT22;454;53.254;10.400;2023-11-19T09:10:15;11.40;99.90
935;DHT22;454;53.254;10.400;2023-11-19T09:12:41;11.40;99.90
935;DHT22;454;53.254;10.400;2023-11-19T09:15:09;11.30;99.90
935;DHT22;454;53.254;10.400;2023-11-19T09:17:36;11.30;99.90
935;DHT22;454;53.254;10.400;2023-11-19T09:20:06;11.30;99.90
935;DHT22;454;53.254;10.400;2023-11-19T09:22:33;11.30;99.90
935;DHT22;454;53.254;10.400;2023-11-19T09:24:59;11.30;99.90
935;DHT22;454;53.254;10.400;2023-11-19T09:27:26;11.40;99.90
935;DHT22;454;53.254;10.400;2023-11-19T09:29:54;11.40;99.90
935;DHT22;454;53.254;10.400;2023-11-19T09:32:23;11.40;99.90
935;DHT22;454;53.254;10.400;2023-11-19T09:34:50;11.40;99.90
935;DHT22;454;53.254;10.400;2023-11-19T09:37:18;11.40;99.90
935;DHT22;454;53.254;10.400;2023-11-19T09:39:45;11.50;99.90
935;DHT22;454;53.254;10.400;2023-11-19T09:42:12;11.50;99.90
935;DHT22;454;53.254;10.400;2023-11-19T09:44:39;11.50;99.90
935;DHT22;454;53.254;10.400;2023-11-19T09:47:07;11.50;99.90
935;DHT22;454;53.254;10.400;2023-11-19T09:49:35;11.60;99.90
935;DHT22;454;53.254;10.400;2023-11-19T09:52:03;11.60;99.90
935;DHT22;454;53.254;10.400;2023-11-19T09:54:32;11.60;99.90
935;DHT22;454;53.254;10.400;2023-11-19T09:56:59;11.60;99.90
935;DHT22;454;53.254;10.400;2023-11-19T09:59:29;11.60;99.90
935;DHT22;454;53.254;10.400;2023-11-19T10:01:56;11.70;99.90
935;DHT22;454;53.254;10.400;2023-11-19T10:04:24;11.70;99.90
935;DHT22;454;53.254;10.400;2023-11-19T10:06:51;11.70;99.90
935;DHT22;454;53.254;10.400;2023-11-19T10:09:18;11.60;99.90
935;DHT22;454;53.254;10.400;2023-11-19T10:11:46;11.60;99.90
935;DHT22;454;53.254;10.400;2023-11-19T10:14:14;11.60;99.90
935;DHT22;454;53.254;10.400;2023-11-19T10:16:41;11.70;99.90
935;DHT22;454;53.254;10.400;2023-11-19T10:19:12;11.70;99.90
935;DHT22;454;53.254;10.400;2023-11-19T10:21:46;11.70;99.90
935;DHT22;454;53.254;10.400;2023-11-19T10:24:12;11.70;99.90
935;DHT22;454;53.254;10.400;2023-11-19T10:26:40;11.80;99.90
935;DHT22;454;53.254;10.400;2023-11-19T10:29:12;11.80;99.90
935;DHT22;454;53.254;10.400;2023-11-19T10:31:40;11.80;99.90
935;DHT22;454;53.254;10.400;2023-11-19T10:34:24;11.70;99.90
935;DHT22;454;53.254;10.400;2023-11-19T10:36:51;11.70;99.90
935;DHT22;454;53.254;10.400;2023-11-19T10:39:18;11.70;99.90
935;DHT22;454;53.254;10.400;2023-11-19T10:41:46;11.70;99.90
935;DHT22;454;53.254;10.400;2023-11-19T10:44:31;11.80;99.90
935;DHT22;454;53.254;10.400;2023-11-19T10:46:59;11.90;99.90
935;DHT22;454;53.254;10.400;2023-11-19T10:49:26;11.90;99.90
935;DHT22;454;53.254;10.400;2023-11-19T10:51:53;11.90;99.90
935;DHT22;454;53.254;10.400;2023-11-19T10:54:22;11.90;99.90
935;DHT22;454;53.254;10.400;2023-11-19T10:56:54;11.90;99.90
935;DHT22;454;53.254;10.400;2023-11-19T10:59:23;12.00;99.90
935;DHT22;454;53.254;10.400;2023-11-19T11:01:53;12.00;99.90
935;DHT22;454;53.254;10.400;2023-11-19T11:04:23;12.00;99.90
935;DHT22;454;53.254;10.400;2023-11-19T11:06:51;12.00;99.90
935;DHT22;454;53.254;10.400;2023-11-19T11:09:17;12.00;99.90
935;DHT22;454;53.254;10.400;2023-11-19T11:11:46;11.90;99.90
935;DHT22;454;53.254;10.400;2023-11-19T11:14:14;11.80;99.90
935;DHT22;454;53.254;10.400;2023-11-19T11:16:43;11.80;99.90
935;DHT22;454;53.254;10.400;2023-11-19T11:19:11;11.70;99.90
935;DHT22;454;53.254;10.400;2023-11-19T11:21:42;11.70;99.90
935;DHT22;454;53.254;10.400;2023-11-19T11:24:34;11.70;99.90
935;DHT22;454;53.254;10.400;2023-11-19T11:30:13;11.80;99.90
935;DHT22;454;53.254;10.400;2023-11-19T11:32:51;11.90;99.90
935;DHT22;454;53.254;10.400;2023-11-19T11:35:32;11.90;99.90
935;DHT22;454;53.254;10.400;2023-11-19T11:38:06;11.90;99.90
935;DHT22;454;53.254;10.400;2023-11-19T11:40:34;11.90;99.90
935;DHT22;454;53.254;10.400;2023-11-19T11:43:01;11.90;99.90
935;DHT22;454;53.254;10.400;2023-11-19T11:45:35;12.00;99.90
935;DHT22;454;53.254;10.400;2023-11-19T11:48:11;12.00;99.90
935;DHT22;454;53.254;10.400;2023-11-19T11:50:53;12.10;99.90
935;DHT22;454;53.254;10.400;2023-11-19T11:53:21;12.10;99.90
935;DHT22;454;53.254;10.400;2023-11-19T11:55:54;12.20;99.90
935;DHT22;454;53.254;10.400;2023-11-19T11:58:25;12.20;99.90
935;DHT22;454;53.254;10.400;2023-11-19T12:00:52;12.30;99.90
935;DHT22;454;53.254;10.400;2023-11-19T12:03:21;12.30;99.90
935;DHT22;454;53.254;10.400;2023-11-19T12:05:48;12.20;99.90
935;DHT22;454;53.254;10.400;2023-11-19T12:08:19;12.10;99.90
935;DHT22;454;53.254;10.400;2023-11-19T12:10:48;12.10;99.90
935;DHT22;454;53.254;10.400;2023-11-19T12:13:16;12.00;99.90
935;DHT22;454;53.254;10.400;2023-11-19T12:16:09;12.00;99.90
935;DHT22;454;53.254;10.400;2023-11-19T12:18:39;12.10;99.90
935;DHT22;454;53.254;10.400;2023-11-19T12:21:06;12.20;99.90
935;DHT22;454;53.254;10.400;2023-11-19T12:23:35;12.20;99.90
935;DHT22;454;53.254;10.400;2023-11-19T12:26:02;12.30;99.90
935;DHT22;454;53.254;10.400;2023-11-19T12:28:29;12.30;99.90
935;DHT22;454;53.254;10.400;2023-11-19T12:31:07;12.30;99.90
935;DHT22;454;53.254;10.400;2023-11-19T12:33:35;12.30;99.90
935;DHT22;454;53.254;10.400;2023-11-19T12:36:05;12.30;99.90
935;DHT22;454;53.254;10.400;2023-11-19T12:38:33;12.40;99.90
935;DHT22;454;53.254;10.400;2023-11-19T12:41:03;12.40;99.90
935;DHT22;454;53.254;10.400;2023-11-19T12:43:30;12.40;99.90
935;DHT22;454;53.254;10.400;2023-11-19T12:45:57;12.30;99.90
935;DHT22;454;53.254;10.400;2023-11-19T12:48:24;12.30;99.90
935;DHT22;454;53.254;10.400;2023-11-19T12:50:52;12.30;99.90
935;DHT22;454;53.254;10.400;2023-11-19T12:53:25;12.30;99.90
935;DHT22;454;53.254;10.400;2023-11-19T12:55:54;12.30;99.90
935;DHT22;454;53.254;10.400;2023-11-19T12:58:29;12.20;99.90
935;DHT22;454;53.254;10.400;2023-11-19T13:01:00;12.20;99.90
935;DHT22;454;53.254;10.400;2023-11-19T13:03:30;12.20;99.90
935;DHT22;454;53.254;10.400;2023-11-19T13:06:04;12.20;99.90
935;DHT22;454;53.254;10.400;2023-11-19T13:08:38;12.20;99.90
935;DHT22;454;53.254;10.400;2023-11-19T13:11:05;12.20;99.90
935;DHT22;454;53.254;10.400;2023-11-19T13:13:33;12.20;99.90
935;DHT22;454;53.254;10.400;2023-11-19T13:16:16;12.20;99.90
935;DHT22;454;53.254;10.400;2023-11-19T13:18:44;12.10;99.90
935;DHT22;454;53.254;10.400;2023-11-19T13:21:11;12.10;99.90
935;DHT22;454;53.254;10.400;2023-11-19T13:23:40;12.10;99.90
935;DHT22;454;53.254;10.400;2023-11-19T13:26:06;12.10;99.90
935;DHT22;454;53.254;10.400;2023-11-19T13:28:33;12.00;99.90
935;DHT22;454;53.254;10.400;2023-11-19T13:31:00;12.10;99.90
935;DHT22;454;53.254;10.400;2023-11-19T13:33:27;12.10;99.90
935;DHT22;454;53.254;10.400;2023-11-19T13:35:54;12.00;99.90
935;DHT22;454;53.254;10.400;2023-11-19T13:38:21;12.00;99.90
935;DHT22;454;53.254;10.400;2023-11-19T13:40:50;12.00;99.90
935;DHT22;454;53.254;10.400;2023-11-19T13:43:17;11.90;99.90
935;DHT22;454;53.254;10.400;2023-11-19T13:45:43;11.90;99.90
935;DHT22;454;53.254;10.400;2023-11-19T13:48:10;11.90;99.90
935;DHT22;454;53.254;10.400;2023-11-19T13:50:37;11.90;99.90
935;DHT22;454;53.254;10.400;2023-11-19T13:53:04;11.90;99.90
935;DHT22;454;53.254;10.400;2023-11-19T13:55:31;11.90;99.90
935;DHT22;454;53.254;10.400;2023-11-19T13:57:59;11.90;99.90
935;DHT22;454;53.254;10.400;2023-11-19T14:00:27;12.00;99.90
935;DHT22;454;53.254;10.400;2023-11-19T14:02:54;11.90;99.90
935;DHT22;454;53.254;10.400;2023-11-19T14:05:20;11.90;99.90
935;DHT22;454;53.254;10.400;2023-11-19T14:07:48;11.90;99.90
935;DHT22;454;53.254;10.400;2023-11-19T14:10:17;11.80;99.90
935;DHT22;454;53.254;10.400;2023-11-19T14:12:44;11.80;99.90
935;DHT22;454;53.254;10.400;2023-11-19T14:15:12;11.80;99.90
935;DHT22;454;53.254;10.400;2023-11-19T14:17:39;11.80;99.90
935;DHT22;454;53.254;10.400;2023-11-19T14:20:07;11.80;99.90
935;DHT22;454;53.254;10.400;2023-11-19T14:22:38;11.80;99.90
935;DHT22;454;53.254;10.400;2023-11-19T14:25:05;11.80;99.90
935;DHT22;454;53.254;10.400;2023-11-19T14:27:35;11.80;99.90
935;DHT22;454;53.254;10.400;2023-11-19T14:30:02;11.70;99.90
935;DHT22;454;53.254;10.400;2023-11-19T14:32:30;11.70;99.90
935;DHT22;454;53.254;10.400;2023-11-19T14:34:57;11.70;99.90
935;DHT22;454;53.254;10.400;2023-11-19T14:37:24;11.60;99.90
935;DHT22;454;53.254;10.400;2023-11-19T14:39:50;11.60;99.90
935;DHT22;454;53.254;10.400;2023-11-19T14:42:17;11.60;99.90
935;DHT22;454;53.254;10.400;2023-11-19T14:44:44;11.60;99.90
935;DHT22;454;53.254;10.400;2023-11-19T14:47:11;11.60;99.90
935;DHT22;454;53.254;10.400;2023-11-19T14:49:39;11.60;99.90
935;DHT22;454;53.254;10.400;2023-11-19T14:52:06;11.60;99.90
935;DHT22;454;53.254;10.400;2023-11-19T14:54:32;11.60;99.90
935;DHT22;454;53.254;10.400;2023-11-19T14:56:59;11.60;99.90
935;DHT22;454;53.254;10.400;2023-11-19T14:59:26;11.60;99.90
935;DHT22;454;53.254;10.400;2023-11-19T15:01:53;11.50;99.90
935;DHT22;454;53.254;10.400;2023-11-19T15:04:20;11.50;99.90
935;DHT22;454;53.254;10.400;2023-11-19T15:06:48;11.50;99.90
935;DHT22;454;53.254;10.400;2023-11-19T15:09:15;11.50;99.90
935;DHT22;454;53.254;10.400;2023-11-19T15:11:42;11.40;99.90
935;DHT22;454;53.254;10.400;2023-11-19T15:14:08;11.40;99.90
935;DHT22;454;53.254;10.400;2023-11-19T15:16:35;11.40;99.90
935;DHT22;454;53.254;10.400;2023-11-19T15:19:03;11.40;99.90
935;DHT22;454;53.254;10.400;2023-11-19T15:21:30;11.30;99.90
935;DHT22;454;53.254;10.400;2023-11-19T15:23:59;11.20;99.90
935;DHT22;454;53.254;10.400;2023-11-19T15:26:26;11.20;99.90
935;DHT22;454;53.254;10.400;2023-11-19T15:28:53;11.10;99.90
935;DHT22;454;53.254;10.400;2023-11-19T15:31:21;11.10;99.90
935;DHT22;454;53.254;10.400;2023-11-19T15:33:48;11.10;99.90
935;DHT22;454;53.254;10.400;2023-11-19T15:36:16;11.10;99.90
935;DHT22;454;53.254;10.400;2023-11-19T15:38:43;11.10;99.90
935;DHT22;454;53.254;10.400;2023-11-19T15:41:11;11.00;99.90
935;DHT22;454;53.254;10.400;2023-11-19T15:43:38;11.00;99.90
935;DHT22;454;53.254;10.400;2023-11-19T15:46:05;11.00;99.90
935;DHT22;454;53.254;10.400;2023-11-19T15:48:32;10.90;99.90
935;DHT22;454;53.254;10.400;2023-11-19T15:50:59;10.90;99.90
935;DHT22;454;53.254;10.400;2023-11-19T15:53:26;10.80;99.90
935;DHT22;454;53.254;10.400;2023-11-19T15:55:53;10.70;99.90
935;DHT22;454;53.254;10.400;2023-11-19T15:58:21;10.70;99.90
935;DHT22;454;53.254;10.400;2023-11-19T16:00:48;10.60;99.90
935;DHT22;454;53.254;10.400;2023-11-19T16:03:15;10.60;99.90
935;DHT22;454;53.254;10.400;2023-11-19T16:05:41;10.60;99.90
935;DHT22;454;53.254;10.400;2023-11-19T16:08:08;10.50;99.90
935;DHT22;454;53.254;10.400;2023-11-19T16:10:36;10.50;99.90
935;DHT22;454;53.254;10.400;2023-11-19T16:13:05;10.50;99.90
935;DHT22;454;53.254;10.400;2023-11-19T16:15:33;10.50;99.90
935;DHT22;454;53.254;10.400;2023-11-19T16:18:00;10.50;99.90
935;DHT22;454;53.254;10.400;2023-11-19T16:20:27;10.50;99.90
935;DHT22;454;53.254;10.400;2023-11-19T16:22:54;10.50;99.90
935;DHT22;454;53.254;10.400;2023-11-19T16:25:21;10.50;99.90
935;DHT22;454;53.254;10.400;2023-11-19T16:27:47;10.50;99.90
935;DHT22;454;53.254;10.400;2023-11-19T16:30:16;10.50;99.90
935;DHT22;454;53.254;10.400;2023-11-19T16:32:51;10.50;99.90
935;DHT22;454;53.254;10.400;2023-11-19T16:35:20;10.50;99.90
935;DHT22;454;53.254;10.400;2023-11-19T16:37:47;10.50;99.90
935;DHT22;454;53.254;10.400;2023-11-19T16:40:14;10.50;99.90
935;DHT22;454;53.254;10.400;2023-11-19T16:42:41;10.40;99.90
935;DHT22;454;53.254;10.400;2023-11-19T16:45:09;10.40;99.90
935;DHT22;454;53.254;10.400;2023-11-19T16:47:35;10.40;99.90
935;DHT22;454;53.254;10.400;2023-11-19T16:50:04;10.40;99.90
935;DHT22;454;53.254;10.400;2023-11-19T16:52:33;10.40;99.90
935;DHT22;454;53.254;10.400;2023-11-19T16:55:04;10.40;99.90
935;DHT22;454;53.254;10.400;2023-11-19T16:57:41;10.40;99.90
935;DHT22;454;53.254;10.400;2023-11-19T17:00:10;10.40;99.90
935;DHT22;454;53.254;10.400;2023-11-19T17:02:38;10.30;99.90
935;DHT22;454;53.254;10.400;2023-11-19T17:05:08;10.30;99.90
935;DHT22;454;53.254;10.400;2023-11-19T17:07:36;10.30;99.90
935;DHT22;454;53.254;10.400;2023-11-19T17:10:05;10.30;99.90
935;DHT22;454;53.254;10.400;2023-11-19T17:12:34;10.30;99.90
935;DHT22;454;53.254;10.400;2023-11-19T17:15:01;10.20;99.90
935;DHT22;454;53.254;10.400;2023-11-19T17:17:33;10.30;99.90
935;DHT22;454;53.254;10.400;2023-11-19T17:20:02;10.20;99.90
935;DHT22;454;53.254;10.400;2023-11-19T17:22:32;10.30;99.90
935;DHT22;454;53.254;10.400;2023-11-19T17:25:00;10.30;99.90
935;DHT22;454;53.254;10.400;2023-11-19T17:27:28;10.20;99.90
935;DHT22;454;53.254;10.400;2023-11-19T17:29:55;10.30;99.90
935;DHT22;454;53.254;10.400;2023-11-19T17:32:22;10.30;99.90
935;DHT22;454;53.254;10.400;2023-11-19T17:35:01;10.20;99.90
935;DHT22;454;53.254;10.400;2023-11-19T17:37:32;10.20;99.90
935;DHT22;454;53.254;10.400;2023-11-19T17:40:00;10.20;99.90
935;DHT22;454;53.254;10.400;2023-11-19T17:42:27;10.20;99.90
935;DHT22;454;53.254;10.400;2023-11-19T17:44:54;10.20;99.90
935;DHT22;454;53.254;10.400;2023-11-19T17:47:24;10.20;99.90
935;DHT22;454;53.254;10.400;2023-11-19T17:49:51;10.20;99.90
935;DHT22;454;53.254;10.400;2023-11-19T17:52:19;10.20;99.90
935;DHT22;454;53.254;10.400;2023-11-19T17:54:47;10.30;99.90
935;DHT22;454;53.254;10.400;2023-11-19T17:57:14;10.30;99.90
935;DHT22;454;53.254;10.400;2023-11-19T17:59:41;10.30;99.90
935;DHT22;454;53.254;10.400;2023-11-19T18:02:09;10.30;99.90
935;DHT22;454;53.254;10.400;2023-11-19T18:04:36;10.40;99.90
935;DHT22;454;53.254;10.400;2023-11-19T18:07:03;10.40;99.90
935;DHT22;454;53.254;10.400;2023-11-19T18:09:30;10.40;99.90
935;DHT22;454;53.254;10.400;2023-11-19T18:11:58;10.40;99.90
935;DHT22;454;53.254;10.400;2023-11-19T18:14:25;10.40;99.90
935;DHT22;454;53.254;10.400;2023-11-19T18:16:52;10.40;99.90
935;DHT22;454;53.254;10.400;2023-11-19T18:19:19;10.40;99.90
935;DHT22;454;53.254;10.400;2023-11-19T18:21:45;10.40;99.90
935;DHT22;454;53.254;10.400;2023-11-19T18:24:12;10.40;99.90
935;DHT22;454;53.254;10.400;2023-11-19T18:26:41;10.40;99.90
935;DHT22;454;53.254;10.400;2023-11-19T18:29:09;10.40;99.90
935;DHT22;454;53.254;10.400;2023-11-19T18:31:37;10.40;99.90
935;DHT22;454;53.254;10.400;2023-11-19T18:34:04;10.40;99.90
935;DHT22;454;53.254;10.400;2023-11-19T18:36:34;10.40;99.90
935;DHT22;454;53.254;10.400;2023-11-19T18:39:02;10.40;99.90
935;DHT22;454;53.254;10.400;2023-11-19T18:41:29;10.50;99.90
935;DHT22;454;53.254;10.400;2023-11-19T18:43:56;10.40;99.90
935;DHT22;454;53.254;10.400;2023-11-19T18:46:24;10.50;99.90
935;DHT22;454;53.254;10.400;2023-11-19T18:48:51;10.40;99.90
935;DHT22;454;53.254;10.400;2023-11-19T18:51:18;10.40;99.90
935;DHT22;454;53.254;10.400;2023-11-19T18:53:45;10.40;99.90
935;DHT22;454;53.254;10.400;2023-11-19T18:56:13;10.50;99.90
935;DHT22;454;53.254;10.400;2023-11-19T18:58:40;10.40;99.90
935;DHT22;454;53.254;10.400;2023-11-19T19:01:07;10.40;99.90
935;DHT22;454;53.254;10.400;2023-11-19T19:03:35;10.40;99.90
935;DHT22;454;53.254;10.400;2023-11-19T19:06:02;10.40;99.90
935;DHT22;454;53.254;10.400;2023-11-19T19:08:30;10.40;99.90
935;DHT22;454;53.254;10.400;2023-11-19T19:10:58;10.40;99.90
935;DHT22;454;53.254;10.400;2023-11-19T19:13:25;10.40;99.90
935;DHT22;454;53.254;10.400;2023-11-19T19:15:52;10.40;99.90
935;DHT22;454;53.254;10.400;2023-11-19T19:18:19;10.40;99.90
935;DHT22;454;53.254;10.400;2023-11-19T19:20:47;10.40;99.90
935;DHT22;454;53.254;10.400;2023-11-19T19:23:14;10.40;99.90
935;DHT22;454;53.254;10.400;2023-11-19T19:25:41;10.40;99.90
935;DHT22;454;53.254;10.400;2023-11-19T19:28:09;10.40;99.90
935;DHT22;454;53.254;10.400;2023-11-19T19:30:36;10.40;99.90
935;DHT22;454;53.254;10.400;2023-11-19T19:33:03;10.40;99.90
935;DHT22;454;53.254;10.400;2023-11-19T19:35:30;10.40;99.90
935;DHT22;454;53.254;10.400;2023-11-19T19:37:58;10.40;99.90
935;DHT22;454;53.254;10.400;2023-11-19T19:40:25;10.40;99.90
935;DHT22;454;53.254;10.400;2023-11-19T19:42:51;10.40;99.90
935;DHT22;454;53.254;10.400;2023-11-19T19:45:25;10.40;99.90
935;DHT22;454;53.254;10.400;2023-11-19T19:47:52;10.40;99.90
935;DHT22;454;53.254;10.400;2023-11-19T19:50:19;10.40;99.90
935;DHT22;454;53.254;10.400;2023-11-19T19:52:46;10.40;99.90
935;DHT22;454;53.254;10.400;2023-11-19T19:55:14;10.40;99.90
935;DHT22;454;53.254;10.400;2023-11-19T19:57:43;10.40;99.90
935;DHT22;454;53.254;10.400;2023-11-19T20:00:11;10.40;99.90
935;DHT22;454;53.254;10.400;2023-11-19T20:02:39;10.30;99.90
935;DHT22;454;53.254;10.400;2023-11-19T20:05:07;10.40;99.90
935;DHT22;454;53.254;10.400;2023-11-19T20:07:37;10.30;99.90
935;DHT22;454;53.254;10.400;2023-11-19T20:10:04;10.30;99.90
935;DHT22;454;53.254;10.400;2023-11-19T20:12:32;10.30;99.90
935;DHT22;454;53.254;10.400;2023-11-19T20:14:59;10.30;99.90
935;DHT22;454;53.254;10.400;2023-11-19T20:17:26;10.30;99.90
935;DHT22;454;53.254;10.400;2023-11-19T20:19:53;10.30;99.90
935;DHT22;454;53.254;10.400;2023-11-19T20:22:20;10.30;99.90
935;DHT22;454;53.254;10.400;2023-11-19T20:24:47;10.30;99.90
935;DHT22;454;53.254;10.400;2023-11-19T20:27:13;10.30;99.90
935;DHT22;454;53.254;10.400;2023-11-19T20:29:45;10.30;99.90
935;DHT22;454;53.254;10.400;2023-11-19T20:32:12;10.30;99.90
935;DHT22;454;53.254;10.400;2023-11-19T20:34:39;10.40;99.90
935;DHT22;454;53.254;10.400;2023-11-19T20:37:06;10.30;99.90
935;DHT22;454;53.254;10.400;2023-11-19T20:39:33;10.40;99.90
935;DHT22;454;53.254;10.400;2023-11-19T20:42:00;10.30;99.90
935;DHT22;454;53.254;10.400;2023-11-19T20:44:28;10.40;99.90
935;DHT22;454;53.254;10.400;2023-11-19T20:46:56;10.40;99.90
935;DHT22;454;53.254;10.400;2023-11-19T20:49:22;10.40;99.90
935;DHT22;454;53.254;10.400;2023-11-19T20:51:49;10.40;99.90
935;DHT22;454;53.254;10.400;2023-11-19T20:54:16;10.40;99.90
935;DHT22;454;53.254;10.400;2023-11-19T20:56:43;10.40;99.90
935;DHT22;454;53.254;10.400;2023-11-19T20:59:09;10.40;99.90
935;DHT22;454;53.254;10.400;2023-11-19T21:01:36;10.40;99.90
935;DHT22;454;53.254;10.400;2023-11-19T21:04:05;10.40;99.90
935;DHT22;454;53.254;10.400;2023-11-19T21:06:35;10.40;99.90
935;DHT22;454;53.254;10.400;2023-11-19T21:09:02;10.40;99.90
935;DHT22;454;53.254;10.400;2023-11-19T21:11:29;10.40;99.90
935;DHT22;454;53.254;10.400;2023-11-19T21:13:56;10.40;99.90
935;DHT22;454;53.254;10.400;2023-11-19T21:16:23;10.40;99.90
935;DHT22;454;53.254;10.400;2023-11-19T21:18:51;10.40;99.90
935;DHT22;454;53.254;10.400;2023-11-19T21:21:19;10.40;99.90
935;DHT22;454;53.254;10.400;2023-11-19T21:23:46;10.40;99.90
935;DHT22;454;53.254;10.400;2023-11-19T21:26:13;10.40;99.90
935;DHT22;454;53.254;10.400;2023-11-19T21:28:40;10.40;99.90